Time;durP1;ratioP1;P1;durP2;ratioP2;P2;SDS_P1;SDS_P2;PMS_P1;PMS_P2;Temp;Humidity;BMP_temperature;BMP_pressure;BME280_temperature;BME280_humidity;BME280_pressure;Samples;Min_cycle;Max_cycle;Signal;HPM_P1;HPM_P2
2023/11/19 00:00:14;;;;;;;15.50;3.00;;;;;;;10.75;80.78;99033.84;5044068;28;20053;-48
2023/11/19 00:02:41;;;;;;;15.73;2.58;;;;;;;10.76;80.48;99045.91;5044549;28;20049;-46
2023/11/19 00:05:11;;;;;;;16.25;2.22;;;;;;;10.73;80.92;99039.94;5044995;28;20049;-49
2023/11/19 00:07:43;;;;;;;19.95;2.28;;;;;;;10.73;80.01;99030.44;5040929;28;20135;-50
2023/11/19 00:10:12;;;;;;;15.95;1.75;;;;;;;10.73;80.83;99045.97;5043171;28;20144;-47
2023/11/19 00:12:44;;;;;;;14.88;2.47;;;;;;;10.71;79.63;99032.19;5044364;28;20045;-47
2023/11/19 00:15:11;;;;;;;20.15;2.42;;;;;;;10.70;80.53;99014.94;5037954;28;20096;-50
2023/11/19 00:17:44;;;;;;;17.52;2.20;;;;;;;10.69;80.07;99007.22;5041034;28;20059;-51
2023/11/19 00:20:12;;;;;;;26.50;2.50;;;;;;;10.67;80.12;99009.81;5051539;28;20123;-46
2023/11/19 00:22:39;;;;;;;19.90;2.83;;;;;;;10.65;80.26;99011.59;5041471;28;20076;-43
2023/11/19 00:25:15;;;;;;;16.25;2.17;;;;;;;10.57;80.27;99008.31;5036588;28;20495;-46
2023/11/19 00:27:44;;;;;;;13.63;1.73;;;;;;;10.61;80.40;99012.56;5041627;28;20064;-48
2023/11/19 00:30:13;;;;;;;15.07;1.25;;;;;;;10.60;79.85;99000.50;5041503;28;20048;-46
2023/11/19 00:32:41;;;;;;;17.85;2.20;;;;;;;10.58;79.93;99016.06;5040932;28;20049;-44
2023/11/19 00:35:09;;;;;;;20.48;2.28;;;;;;;10.58;79.80;98999.66;5043400;28;20040;-47
2023/11/19 00:37:36;;;;;;;19.15;2.05;;;;;;;10.58;80.83;99012.59;5044652;28;20103;-44
2023/11/19 00:40:05;;;;;;;21.27;2.83;;;;;;;10.57;79.79;99018.69;5041148;28;20049;-41
2023/11/19 00:42:32;;;;;;;16.08;2.30;;;;;;;10.57;79.60;99009.16;5040046;28;21074;-53
2023/11/19 00:44:59;;;;;;;18.92;1.90;;;;;;;10.56;79.62;99023.00;5041575;28;20072;-46
2023/11/19 00:47:25;;;;;;;20.38;2.13;;;;;;;10.52;79.70;99022.22;5043363;28;20135;-50
2023/11/19 00:49:52;;;;;;;19.60;2.67;;;;;;;10.52;80.39;99024.78;5041038;28;20099;-47
2023/11/19 00:52:19;;;;;;;18.80;2.35;;;;;;;10.54;79.53;99011.81;5040382;28;20049;-49
2023/11/19 00:54:46;;;;;;;21.20;1.80;;;;;;;10.53;79.85;99023.91;5044382;28;20045;-49
2023/11/19 00:57:12;;;;;;;8.20;2.22;;;;;;;10.50;80.73;99016.19;5041226;28;20045;-43
2023/11/19 00:59:42;;;;;;;16.67;1.73;;;;;;;10.51;80.46;99010.13;5062221;28;20095;-44
2023/11/19 01:02:09;;;;;;;28.73;3.17;;;;;;;10.49;80.61;99001.56;5046990;28;20052;-46
2023/11/19 01:04:36;;;;;;;12.73;2.30;;;;;;;10.50;80.49;99013.59;5038337;28;20050;-48
2023/11/19 01:07:04;;;;;;;19.52;2.05;;;;;;;10.49;79.46;99009.31;5039564;28;20524;-47
2023/11/19 01:09:34;;;;;;;14.73;1.63;;;;;;;10.49;79.72;99005.88;5038867;28;20450;-47
2023/11/19 01:12:02;;;;;;;14.98;2.65;;;;;;;10.47;79.91;99008.47;5042109;28;20129;-47
2023/11/19 01:14:29;;;;;;;15.10;1.85;;;;;;;10.46;80.40;99006.78;5041645;28;20042;-44
2023/11/19 01:16:56;;;;;;;16.95;2.70;;;;;;;10.43;80.52;99000.78;5036625;28;20055;-45
2023/11/19 01:19:23;;;;;;;15.90;1.55;;;;;;;10.43;79.54;99001.63;5039625;28;20103;-46
2023/11/19 01:21:51;;;;;;;18.23;2.30;;;;;;;10.43;79.99;99005.97;5037819;28;20506;-44
2023/11/19 01:24:17;;;;;;;14.25;1.63;;;;;;;10.39;79.71;98990.50;5040467;28;20046;-46
2023/11/19 01:26:45;;;;;;;20.80;2.42;;;;;;;10.40;79.61;98989.59;5039160;28;20052;-47
2023/11/19 01:29:14;;;;;;;17.88;1.75;;;;;;;10.39;79.44;98994.81;5039521;28;20571;-47
2023/11/19 01:31:43;;;;;;;21.60;3.00;;;;;;;10.36;79.58;98995.72;5042934;28;20053;-48
2023/11/19 01:34:11;;;;;;;18.65;1.65;;;;;;;10.40;80.05;98996.50;5041980;28;20053;-47
2023/11/19 01:36:39;;;;;;;25.90;2.25;;;;;;;10.39;79.91;98997.38;5045478;28;20045;-44
2023/11/19 01:39:06;;;;;;;19.23;2.00;;;;;;;10.37;79.91;98996.59;5038119;28;20053;-50
2023/11/19 01:41:36;;;;;;;18.00;2.97;;;;;;;10.37;80.25;99006.94;5046218;28;20414;-50
2023/11/19 01:44:05;;;;;;;16.17;1.70;;;;;;;10.36;79.86;99012.97;5042249;28;20037;-50
2023/11/19 01:46:34;;;;;;;19.67;2.00;;;;;;;10.37;79.51;99006.94;5038007;28;20506;-50
2023/11/19 01:49:02;;;;;;;19.77;2.05;;;;;;;10.34;80.24;99017.34;5045957;28;20060;-49
2023/11/19 01:51:31;;;;;;;24.00;2.78;;;;;;;10.35;80.38;99014.72;5046860;28;20048;-44
2023/11/19 01:53:59;;;;;;;19.77;2.55;;;;;;;10.37;79.55;99025.88;5044474;28;20566;-48
2023/11/19 01:56:27;;;;;;;18.67;2.05;;;;;;;10.38;80.30;99018.97;5043967;28;20206;-41
2023/11/19 01:58:55;;;;;;;18.80;3.30;;;;;;;10.39;79.62;99010.31;5045940;28;20080;-48
2023/11/19 02:01:23;;;;;;;14.77;1.85;;;;;;;10.35;79.96;99009.53;5044610;28;20045;-45
2023/11/19 02:03:52;;;;;;;26.13;2.50;;;;;;;10.36;79.46;99000.88;5048432;28;20061;-47
2023/11/19 02:06:19;;;;;;;15.10;1.80;;;;;;;10.34;80.01;99005.22;5043797;28;20037;-45
2023/11/19 02:08:46;;;;;;;11.95;1.70;;;;;;;10.32;80.28;99008.72;5045263;28;20049;-50
2023/11/19 02:11:13;;;;;;;16.50;2.05;;;;;;;10.37;79.72;99006.94;5038759;28;20441;-46
2023/11/19 02:13:41;;;;;;;13.68;1.50;;;;;;;10.38;79.74;98998.28;5044388;28;20566;-48
2023/11/19 02:16:10;;;;;;;17.70;1.90;;;;;;;10.41;80.14;99008.59;5038565;28;20042;-50
2023/11/19 02:18:38;;;;;;;17.27;2.25;;;;;;;10.43;79.83;99011.16;5043776;28;20126;-50
2023/11/19 02:21:05;;;;;;;20.45;2.28;;;;;;;10.48;79.65;99010.22;5042406;28;20107;-48
2023/11/19 02:23:32;;;;;;;12.73;1.65;;;;;;;10.50;80.00;99008.44;5040950;28;20396;-47
2023/11/19 02:28:36;;;;;;;21.58;2.63;;;;;;;10.59;80.55;98998.75;5035145;28;20409;-46
2023/11/19 02:31:05;;;;;;;20.00;2.45;;;;;;;10.63;79.87;98997.81;5017531;28;20076;-45
2023/11/19 02:33:31;;;;;;;17.75;1.95;;;;;;;10.66;80.22;98997.75;5020776;28;20491;-48
2023/11/19 02:35:58;;;;;;;21.92;1.95;;;;;;;10.70;80.63;99004.59;5012529;28;20058;-48
2023/11/19 02:38:25;;;;;;;13.23;1.73;;;;;;;10.71;79.85;98992.50;5011605;28;20055;-46
2023/11/19 02:40:52;;;;;;;9.55;1.63;;;;;;;10.68;80.27;98990.84;5014783;28;20125;-51
2023/11/19 02:43:19;;;;;;;12.90;2.20;;;;;;;10.73;80.83;98988.13;5017888;28;20045;-46
2023/11/19 02:45:46;;;;;;;22.98;2.97;;;;;;;10.75;80.16;98987.25;5013239;28;20794;-48
2023/11/19 02:48:14;;;;;;;20.90;2.08;;;;;;;10.72;80.12;98979.53;5015012;28;20129;-46
2023/11/19 02:50:42;;;;;;;16.05;3.95;;;;;;;10.74;80.52;98979.50;5013553;28;20411;-47
2023/11/19 02:53:08;;;;;;;18.25;2.10;;;;;;;10.77;80.43;98972.50;5007067;28;20057;-54
2023/11/19 02:55:38;;;;;;;11.38;2.03;;;;;;;10.78;80.77;98965.59;5014652;28;20072;-49
2023/11/19 02:58:19;;;;;;;11.55;1.83;;;;;;;10.84;80.53;98969.78;5013401;28;20108;-50
2023/11/19 03:00:56;;;;;;;16.10;2.30;;;;;;;10.86;79.68;98968.00;5017986;28;20032;-50
2023/11/19 03:03:28;;;;;;;16.85;2.53;;;;;;;10.87;80.07;98965.38;5025161;28;20088;-43
2023/11/19 03:05:55;;;;;;;8.30;1.70;;;;;;;10.83;79.29;98962.88;5006785;28;20512;-52
2023/11/19 03:08:22;;;;;;;17.35;2.00;;;;;;;10.88;79.28;98971.44;5012143;28;20042;-46
2023/11/19 03:10:49;;;;;;;17.67;2.28;;;;;;;10.90;79.41;98967.06;5018635;28;20044;-46
2023/11/19 03:13:17;;;;;;;11.70;2.22;;;;;;;10.87;79.76;98965.38;5007584;28;20081;-48
2023/11/19 03:15:44;;;;;;;14.48;1.90;;;;;;;10.89;79.69;98967.94;5014096;28;20127;-46
2023/11/19 03:18:11;;;;;;;20.95;3.05;;;;;;;10.90;79.64;98964.47;5007756;28;20092;-51
2023/11/19 03:20:38;;;;;;;16.20;1.30;;;;;;;10.91;79.46;98961.00;5006888;28;20064;-53
2023/11/19 03:23:06;;;;;;;20.23;2.53;;;;;;;10.87;78.85;98954.16;5011564;28;20077;-47
2023/11/19 03:25:34;;;;;;;22.60;2.45;;;;;;;10.86;79.49;98955.06;5008825;28;20101;-49
2023/11/19 03:28:02;;;;;;;12.20;1.83;;;;;;;10.80;78.80;98974.16;5016586;28;20054;-47
2023/11/19 03:30:29;;;;;;;16.98;1.90;;;;;;;10.79;79.47;98960.38;5011868;28;20103;-48
2023/11/19 03:33:01;;;;;;;15.43;2.13;;;;;;;10.78;79.75;98961.25;5015279;28;20054;-47
2023/11/19 03:35:28;;;;;;;17.27;2.00;;;;;;;10.78;78.72;98953.47;5012096;28;20054;-51
2023/11/19 03:37:55;;;;;;;13.73;2.30;;;;;;;10.76;79.61;98950.09;5009184;28;20135;-47
2023/11/19 03:40:24;;;;;;;16.27;2.05;;;;;;;10.82;79.36;98950.84;5003612;28;20570;-51
2023/11/19 03:42:50;;;;;;;23.88;2.75;;;;;;;10.82;79.13;98949.09;4994681;28;20513;-48
2023/11/19 03:45:17;;;;;;;14.98;2.35;;;;;;;10.83;79.26;98945.63;5005380;28;20050;-48
2023/11/19 03:47:44;;;;;;;12.95;2.45;;;;;;;10.86;79.19;98947.28;5007035;28;20046;-48
2023/11/19 03:50:10;;;;;;;16.45;2.03;;;;;;;10.85;78.93;98946.44;5004402;28;20140;-48
2023/11/19 03:52:37;;;;;;;17.00;3.38;;;;;;;10.88;79.21;98945.53;5004191;28;20050;-43
2023/11/19 03:55:08;;;;;;;20.40;2.00;;;;;;;10.88;79.66;98935.16;5009772;28;20054;-46
2023/11/19 03:57:35;;;;;;;11.73;1.52;;;;;;;10.89;79.26;98936.88;5000525;28;20069;-53
2023/11/19 04:00:09;;;;;;;16.52;2.92;;;;;;;10.94;79.30;98935.00;4999352;28;20046;-46
2023/11/19 04:02:37;;;;;;;17.40;3.15;;;;;;;10.95;79.17;98926.38;4996201;28;20697;-44
2023/11/19 04:05:05;;;;;;;16.05;1.63;;;;;;;10.92;79.76;98931.63;4996810;28;20045;-47
2023/11/19 04:07:32;;;;;;;15.38;1.88;;;;;;;10.87;78.83;98929.13;4996304;28;20096;-53
2023/11/19 04:09:59;;;;;;;15.65;1.70;;;;;;;10.88;79.11;98930.00;5000492;28;20050;-45
2023/11/19 04:12:26;;;;;;;19.33;2.17;;;;;;;10.91;78.90;98935.09;4995141;28;20077;-45
2023/11/19 04:14:52;;;;;;;22.08;2.67;;;;;;;10.93;79.56;98938.50;5002581;28;20107;-46
2023/11/19 04:17:22;;;;;;;10.45;1.38;;;;;;;10.93;79.55;98938.50;5000089;28;20054;-48
2023/11/19 04:19:49;;;;;;;15.43;1.55;;;;;;;10.95;79.69;98931.56;4996818;28;20077;-45
2023/11/19 04:22:16;;;;;;;21.90;2.28;;;;;;;10.98;78.71;98935.81;4994010;28;20101;-43
2023/11/19 04:24:45;;;;;;;17.27;2.75;;;;;;;10.95;78.77;98957.47;5007490;28;20050;-53
2023/11/19 04:27:12;;;;;;;20.35;2.10;;;;;;;10.96;79.83;98943.63;4994897;28;20046;-45
2023/11/19 04:29:39;;;;;;;13.98;2.03;;;;;;;10.93;78.69;98959.22;4999001;28;20069;-51
2023/11/19 04:32:06;;;;;;;17.13;3.47;;;;;;;10.90;79.36;98954.97;4997761;28;20568;-49
2023/11/19 04:34:32;;;;;;;11.15;3.17;;;;;;;10.91;78.81;98951.47;4999930;28;20446;-48
2023/11/19 04:37:03;;;;;;;13.02;2.58;;;;;;;10.84;79.87;98943.91;5001250;28;20477;-48
2023/11/19 04:39:32;;;;;;;16.42;2.67;;;;;;;10.83;79.72;98952.53;4997739;28;20053;-47
2023/11/19 04:41:59;;;;;;;11.85;2.58;;;;;;;10.79;79.02;98952.63;5003886;28;20064;-48
2023/11/19 04:44:26;;;;;;;8.95;1.10;;;;;;;10.75;79.70;98956.16;5001969;28;20057;-47
2023/11/19 04:46:52;;;;;;;13.13;2.85;;;;;;;10.68;78.75;98949.41;5003101;28;20049;-45
2023/11/19 04:49:19;;;;;;;12.68;1.95;;;;;;;10.69;79.68;98963.19;4991530;28;20053;-46
2023/11/19 04:51:47;;;;;;;8.68;1.75;;;;;;;10.66;79.60;98961.50;5001325;28;20042;-49
2023/11/19 04:54:14;;;;;;;14.35;1.75;;;;;;;10.63;79.82;98951.22;4997341;28;20073;-48
2023/11/19 04:56:45;;;;;;;5.88;1.20;;;;;;;10.56;79.42;98949.63;5007786;28;20058;-51
2023/11/19 04:59:12;;;;;;;11.40;1.60;;;;;;;10.57;79.95;98943.59;4996714;28;20749;-51
2023/11/19 05:01:38;;;;;;;6.03;1.38;;;;;;;10.50;79.35;98941.13;5004246;28;20053;-52
2023/11/19 05:04:07;;;;;;;8.07;1.63;;;;;;;10.43;79.06;98955.03;5004685;28;20470;-43
2023/11/19 05:06:35;;;;;;;16.45;1.77;;;;;;;10.48;79.88;98940.31;4997308;28;20073;-47
2023/11/19 05:09:07;;;;;;;10.07;1.38;;;;;;;10.45;78.94;98955.91;4997197;28;20069;-48
2023/11/19 05:11:34;;;;;;;8.23;1.52;;;;;;;10.44;79.66;98956.75;4995950;28;20054;-46
2023/11/19 05:14:04;;;;;;;6.55;1.00;;;;;;;10.40;79.43;98963.72;4999642;28;20046;-49
2023/11/19 05:16:31;;;;;;;10.07;1.55;;;;;;;10.40;79.92;98955.09;4995347;28;20053;-53
2023/11/19 05:18:58;;;;;;;7.53;1.15;;;;;;;10.37;79.46;98952.56;4999838;28;20054;-47
2023/11/19 05:21:25;;;;;;;11.27;2.10;;;;;;;10.37;78.76;98945.66;5004830;28;20065;-48
2023/11/19 05:23:51;;;;;;;11.20;3.22;;;;;;;10.38;79.53;98938.75;5000380;28;20402;-45
2023/11/19 05:26:21;;;;;;;9.20;1.13;;;;;;;10.39;79.01;98948.22;4998525;28;20046;-51
2023/11/19 05:28:48;;;;;;;9.20;1.95;;;;;;;10.33;79.68;98945.75;4997159;28;20132;-44
2023/11/19 05:31:16;;;;;;;10.30;0.93;;;;;;;10.41;78.88;98941.28;4999510;28;20088;-51
2023/11/19 05:33:43;;;;;;;6.85;2.03;;;;;;;10.43;79.64;98933.47;4997283;28;20113;-48
2023/11/19 05:36:12;;;;;;;7.53;1.27;;;;;;;10.45;79.17;98937.78;4997228;28;20105;-46
2023/11/19 05:38:39;;;;;;;13.13;1.60;;;;;;;10.44;79.53;98941.22;4993173;28;20099;-43
2023/11/19 05:41:06;;;;;;;12.50;1.42;;;;;;;10.44;79.57;98930.00;4999489;28;20137;-46
2023/11/19 05:43:33;;;;;;;5.15;1.48;;;;;;;10.39;79.54;98937.84;4998389;28;20053;-48
2023/11/19 05:46:01;;;;;;;15.90;2.00;;;;;;;10.38;79.01;98946.50;5001127;28;20050;-47
2023/11/19 05:48:28;;;;;;;6.45;1.67;;;;;;;10.38;78.84;98959.44;4994676;28;20074;-43
2023/11/19 05:50:55;;;;;;;8.20;1.33;;;;;;;10.35;78.96;98968.13;5003902;28;20100;-47
2023/11/19 05:53:22;;;;;;;10.50;1.23;;;;;;;10.37;79.13;98961.19;5000042;28;20050;-52
2023/11/19 05:55:54;;;;;;;3.47;0.77;;;;;;;10.39;78.79;98954.25;5001242;28;20049;-50
2023/11/19 05:58:28;;;;;;;11.13;1.30;;;;;;;10.36;79.24;98943.94;5003481;28;20556;-49
2023/11/19 06:00:56;;;;;;;12.00;1.35;;;;;;;10.32;78.56;98960.41;5001953;28;20085;-49
2023/11/19 06:03:23;;;;;;;8.43;1.55;;;;;;;10.26;79.36;98958.81;4997221;28;20050;-49
2023/11/19 06:05:50;;;;;;;11.82;1.80;;;;;;;10.27;78.54;98960.50;4996405;28;20053;-50
2023/11/19 06:08:17;;;;;;;5.55;1.35;;;;;;;10.24;79.13;98957.97;5001934;28;20547;-49
2023/11/19 06:10:50;;;;;;;13.98;1.75;;;;;;;10.20;79.56;98964.09;5004471;28;20045;-52
2023/11/19 06:13:17;;;;;;;11.77;1.27;;;;;;;10.19;78.83;98964.97;4996355;28;20042;-45
2023/11/19 06:15:44;;;;;;;18.67;2.38;;;;;;;10.18;79.50;98960.69;4995498;28;20069;-46
2023/11/19 06:18:12;;;;;;;9.75;1.85;;;;;;;10.16;79.41;98958.13;4992813;28;20053;-49
2023/11/19 06:20:40;;;;;;;8.25;2.00;;;;;;;10.17;79.13;98969.34;4995196;28;20055;-50
2023/11/19 06:23:09;;;;;;;9.52;1.77;;;;;;;10.20;79.61;98979.59;4992684;28;20117;-45
2023/11/19 06:25:36;;;;;;;11.23;2.03;;;;;;;10.20;80.12;98969.25;4993980;28;20046;-47
2023/11/19 06:28:04;;;;;;;8.02;1.25;;;;;;;10.28;79.82;98976.91;4997125;28;20127;-48
2023/11/19 06:30:32;;;;;;;12.05;1.58;;;;;;;10.29;78.96;98982.03;4998400;28;20058;-50
2023/11/19 06:32:59;;;;;;;4.93;1.88;;;;;;;10.29;79.23;98978.59;4996037;28;20492;-52
2023/11/19 06:35:28;;;;;;;9.25;1.30;;;;;;;10.32;79.14;98982.84;4999154;28;20056;-47
2023/11/19 06:37:56;;;;;;;11.82;1.45;;;;;;;10.31;79.02;98986.31;4996456;28;20149;-48
2023/11/19 06:40:22;;;;;;;8.50;1.58;;;;;;;10.26;79.75;98987.28;4997964;28;20153;-45
2023/11/19 06:42:49;;;;;;;10.95;1.60;;;;;;;10.27;79.40;98982.97;4993124;28;20544;-49
2023/11/19 06:45:16;;;;;;;8.48;2.50;;;;;;;10.24;79.85;98983.84;4997160;28;20468;-45
2023/11/19 06:47:42;;;;;;;10.82;1.55;;;;;;;10.24;79.70;98978.66;4994917;28;20054;-46
2023/11/19 06:50:09;;;;;;;7.78;1.23;;;;;;;10.25;80.07;98976.94;4998654;28;20149;-45
2023/11/19 06:52:37;;;;;;;8.75;1.52;;;;;;;10.27;79.84;98982.97;4996830;28;20054;-49
2023/11/19 06:55:04;;;;;;;12.00;1.80;;;;;;;10.28;80.11;98977.75;4998000;28;20046;-48
2023/11/19 06:57:35;;;;;;;11.18;2.03;;;;;;;10.31;80.13;98978.56;4997582;28;20050;-46
2023/11/19 07:00:02;;;;;;;12.35;1.83;;;;;;;10.33;79.13;98979.41;4998017;28;20055;-48
2023/11/19 07:02:29;;;;;;;11.75;1.98;;;;;;;10.35;79.25;98987.97;4994486;28;20058;-50
2023/11/19 07:04:55;;;;;;;13.48;1.85;;;;;;;10.37;79.82;98983.63;4993238;28;20054;-47
2023/11/19 07:07:22;;;;;;;10.25;1.52;;;;;;;10.36;79.54;98979.31;4991583;28;20054;-49
2023/11/19 07:09:49;;;;;;;9.13;1.33;;;;;;;10.35;80.07;98983.66;5003185;28;20053;-47
2023/11/19 07:12:16;;;;;;;13.63;2.08;;;;;;;10.33;79.70;98980.25;4999521;28;20058;-48
2023/11/19 07:14:43;;;;;;;14.55;2.15;;;;;;;10.32;79.80;98967.31;5001616;28;20057;-52
2023/11/19 07:17:10;;;;;;;12.50;1.30;;;;;;;10.28;80.29;98977.75;4999012;28;20064;-47
2023/11/19 07:19:38;;;;;;;13.57;1.83;;;;;;;10.24;79.26;98970.06;5009428;28;20045;-45
2023/11/19 07:22:06;;;;;;;11.75;1.63;;;;;;;10.21;79.20;98963.22;5002487;28;20061;-49
2023/11/19 07:24:33;;;;;;;11.27;1.40;;;;;;;10.19;79.92;98972.72;4995174;28;20053;-48
2023/11/19 07:27:00;;;;;;;14.13;1.80;;;;;;;10.16;80.32;98975.38;5003109;28;20042;-53
2023/11/19 07:29:27;;;;;;;9.23;1.45;;;;;;;10.15;79.55;98977.13;5001636;28;20043;-47
2023/11/19 07:31:55;;;;;;;8.18;1.70;;;;;;;10.15;80.04;98976.25;4998810;28;20062;-54
2023/11/19 07:34:24;;;;;;;6.65;1.15;;;;;;;10.12;80.34;98971.13;5001890;28;20105;-46
2023/11/19 07:36:51;;;;;;;15.95;2.05;;;;;;;10.11;79.90;98979.78;5005832;28;20050;-51
2023/11/19 07:39:20;;;;;;;8.55;1.80;;;;;;;10.08;79.73;98974.66;5004218;28;20049;-48
2023/11/19 07:41:47;;;;;;;7.78;1.70;;;;;;;10.04;79.95;98971.28;5000203;28;20061;-52
2023/11/19 07:44:14;;;;;;;10.98;1.85;;;;;;;10.02;80.58;98971.31;5007443;28;20042;-42
2023/11/19 07:46:42;;;;;;;8.48;1.83;;;;;;;10.05;80.41;98969.53;5004059;28;20050;-45
2023/11/19 07:49:10;;;;;;;12.43;1.40;;;;;;;10.06;80.74;98979.88;5002891;28;20514;-50
2023/11/19 07:51:37;;;;;;;13.73;1.55;;;;;;;10.07;80.04;98983.31;5008396;28;20038;-49
2023/11/19 07:54:04;;;;;;;10.95;1.67;;;;;;;10.09;81.02;98971.19;5003335;28;20054;-42
2023/11/19 07:56:34;;;;;;;9.77;1.20;;;;;;;10.11;80.43;98982.38;5007219;28;20053;-53
2023/11/19 07:59:01;;;;;;;;;;;;;;;10.03;80.63;98985.94;5002232;28;21176;-46
2023/11/19 08:01:28;;;;;;;14.48;1.20;;;;;;;10.12;81.09;98981.50;4995860;28;19983;-50
2023/11/19 08:03:55;;;;;;;5.93;1.25;;;;;;;10.17;80.25;98984.88;4992962;28;20520;-44
2023/11/19 08:06:26;;;;;;;16.20;2.80;;;;;;;10.20;80.37;98989.13;4994256;28;20462;-47
2023/11/19 08:08:53;;;;;;;8.25;1.00;;;;;;;10.21;80.30;98990.81;4999662;28;20070;-49
2023/11/19 08:11:19;;;;;;;10.13;1.48;;;;;;;10.21;80.76;98985.66;4991457;28;20050;-46
2023/11/19 08:13:47;;;;;;;12.75;1.33;;;;;;;10.22;81.12;98988.22;5000260;28;20076;-47
2023/11/19 08:16:14;;;;;;;17.33;2.47;;;;;;;10.27;81.09;98981.22;4996445;28;20050;-49
2023/11/19 08:18:43;;;;;;;9.38;1.13;;;;;;;10.31;80.13;98987.19;5002171;28;20050;-48
2023/11/19 08:21:10;;;;;;;8.07;1.25;;;;;;;10.38;80.31;98987.94;4989899;28;20046;-47
2023/11/19 08:23:37;;;;;;;6.53;1.23;;;;;;;10.47;80.14;98972.22;4997273;28;20096;-50
2023/11/19 08:26:05;;;;;;;9.23;1.33;;;;;;;10.59;80.76;98976.31;4994254;28;20050;-44
2023/11/19 08:28:34;;;;;;;8.57;1.70;;;;;;;10.71;80.83;98980.38;4993887;28;20125;-46
2023/11/19 08:31:04;;;;;;;13.00;1.58;;;;;;;10.86;79.84;98983.56;4994643;28;20050;-44
2023/11/19 08:33:31;;;;;;;10.48;1.35;;;;;;;11.02;79.81;98989.28;4990481;28;20049;-43
2023/11/19 08:35:58;;;;;;;13.80;1.60;;;;;;;11.13;79.43;98991.63;4997189;28;20058;-48
2023/11/19 08:38:25;;;;;;;9.73;1.52;;;;;;;11.14;79.45;98989.00;4992397;28;20205;-43
2023/11/19 08:40:59;;;;;;;13.25;1.35;;;;;;;11.15;79.59;98989.84;4994707;28;20042;-47
2023/11/19 08:43:27;;;;;;;10.00;1.25;;;;;;;11.12;79.99;98990.78;4990890;28;20101;-47
2023/11/19 08:45:53;;;;;;;10.57;1.58;;;;;;;11.14;79.70;98980.34;4991521;28;20073;-47
2023/11/19 08:48:20;;;;;;;14.25;1.88;;;;;;;11.18;79.32;98997.56;4990097;28;20050;-48
2023/11/19 08:50:47;;;;;;;7.10;1.20;;;;;;;11.26;79.72;98987.88;4996369;28;20049;-48
2023/11/19 08:53:15;;;;;;;8.55;1.42;;;;;;;11.36;79.57;99005.81;4988787;28;20046;-52
2023/11/19 08:55:41;;;;;;;12.52;3.08;;;;;;;11.34;78.58;98992.88;4991552;28;20062;-45
2023/11/19 08:58:08;;;;;;;14.55;2.67;;;;;;;11.35;79.60;98991.16;4994609;28;20411;-50
2023/11/19 09:00:35;;;;;;;14.40;2.38;;;;;;;11.35;79.83;98993.75;4992103;28;20492;-49
2023/11/19 09:03:02;;;;;;;12.27;1.75;;;;;;;11.33;78.47;98991.19;5004020;28;20522;-46
2023/11/19 09:05:30;;;;;;;13.35;1.55;;;;;;;11.34;78.55;98999.81;4990473;28;20053;-52
2023/11/19 09:07:57;;;;;;;13.32;1.38;;;;;;;11.34;79.34;99002.41;4997120;28;20104;-47
2023/11/19 09:10:23;;;;;;;12.30;1.95;;;;;;;11.32;79.30;99002.44;4990347;28;20050;-51
2023/11/19 09:12:50;;;;;;;15.07;1.85;;;;;;;11.30;79.19;99010.25;4992420;28;20060;-45
2023/11/19 09:15:17;;;;;;;15.38;2.15;;;;;;;11.30;78.71;99001.59;4996067;28;20086;-47
2023/11/19 09:17:43;;;;;;;11.40;1.48;;;;;;;11.31;78.83;99001.56;4994502;28;20100;-44
2023/11/19 09:20:14;;;;;;;6.22;1.77;;;;;;;11.26;79.95;99008.63;4997977;28;20169;-48
2023/11/19 09:22:41;;;;;;;12.25;2.15;;;;;;;11.23;78.84;98997.44;4997828;28;20077;-43
2023/11/19 09:25:09;;;;;;;18.90;2.08;;;;;;;11.21;78.74;99000.06;4998634;28;20050;-48
2023/11/19 09:27:35;;;;;;;10.82;2.22;;;;;;;11.14;80.12;98996.78;4997663;28;20053;-44
2023/11/19 09:30:03;;;;;;;14.15;1.73;;;;;;;11.13;79.31;98997.66;4996978;28;20050;-45
2023/11/19 09:32:30;;;;;;;9.52;1.35;;;;;;;11.14;80.28;98995.91;4992699;28;20048;-49
2023/11/19 09:34:57;;;;;;;11.85;1.60;;;;;;;11.15;79.10;98997.63;4994803;28;20053;-46
2023/11/19 09:37:24;;;;;;;14.25;1.75;;;;;;;11.15;80.27;98984.69;4995056;28;20045;-42
2023/11/19 09:39:50;;;;;;;12.70;1.80;;;;;;;11.15;80.43;98989.84;4988893;28;20050;-47
2023/11/19 09:42:17;;;;;;;16.45;1.88;;;;;;;11.14;80.04;98981.22;4992950;28;20054;-49
2023/11/19 09:44:45;;;;;;;12.32;1.30;;;;;;;11.12;79.95;98989.91;4993453;28;20046;-50
2023/11/19 09:47:13;;;;;;;8.45;1.38;;;;;;;11.10;80.68;98983.91;4994173;28;20057;-46
2023/11/19 09:49:41;;;;;;;10.55;1.90;;;;;;;11.10;80.07;98982.19;4994091;28;20058;-42
2023/11/19 09:52:07;;;;;;;15.13;2.20;;;;;;;11.12;80.49;98980.41;4998320;28;20068;-50
2023/11/19 09:54:34;;;;;;;14.75;1.95;;;;;;;11.15;80.03;98979.50;4997842;28;20057;-43
2023/11/19 09:57:03;;;;;;;8.98;2.05;;;;;;;11.18;79.95;98979.44;4992879;28;20042;-49
2023/11/19 09:59:31;;;;;;;16.83;2.15;;;;;;;11.20;80.91;98982.81;4993179;28;20141;-45
2023/11/19 10:01:59;;;;;;;8.95;1.25;;;;;;;11.22;80.47;98980.19;4995568;28;20105;-44
2023/11/19 10:04:29;;;;;;;12.80;1.52;;;;;;;11.24;80.29;98979.28;4988979;28;20051;-45
2023/11/19 10:06:57;;;;;;;12.68;1.58;;;;;;;11.24;80.19;98983.59;4988842;28;20042;-46
2023/11/19 10:09:23;;;;;;;14.63;2.65;;;;;;;11.28;80.34;98983.50;4998019;28;20048;-48
2023/11/19 10:11:50;;;;;;;11.48;1.85;;;;;;;11.28;81.24;98983.50;4988608;28;20054;-44
2023/11/19 10:14:22;;;;;;;12.43;2.03;;;;;;;11.34;81.15;98979.91;4992827;28;20046;-47
2023/11/19 10:16:49;;;;;;;12.15;2.20;;;;;;;11.39;80.05;98979.81;4992242;28;20047;-50
2023/11/19 10:19:20;;;;;;;21.70;1.38;;;;;;;11.43;79.99;98974.53;4987740;28;20054;-48
2023/11/19 10:21:47;;;;;;;14.07;1.58;;;;;;;11.47;80.95;98975.28;4990751;28;20053;-48
2023/11/19 10:24:14;;;;;;;11.73;1.70;;;;;;;11.52;80.50;98978.63;4991225;28;20047;-48
2023/11/19 10:26:57;;;;;;;12.95;1.60;;;;;;;11.54;80.66;98976.84;4993467;28;20560;-43
2023/11/19 10:29:24;;;;;;;16.90;1.75;;;;;;;11.57;80.43;98961.22;4997500;28;20232;-44
2023/11/19 10:31:59;;;;;;;13.90;1.45;;;;;;;11.62;80.32;98962.84;4993113;28;20053;-51
2023/11/19 10:34:45;;;;;;;12.98;2.40;;;;;;;11.78;80.43;98948.59;4990502;28;20133;-48
2023/11/19 10:37:31;;;;;;;10.85;1.77;;;;;;;11.88;79.92;98949.22;4988704;28;20151;-49
2023/11/19 10:39:58;;;;;;;10.32;2.38;;;;;;;12.02;79.43;98948.03;4987526;28;20128;-43
2023/11/19 10:42:25;;;;;;;6.80;1.33;;;;;;;12.03;79.67;98953.16;4991142;28;20113;-50
2023/11/19 10:44:52;;;;;;;8.93;1.70;;;;;;;12.11;79.35;98949.53;4987987;28;20057;-46
2023/11/19 10:47:19;;;;;;;13.50;2.45;;;;;;;12.13;79.65;98947.75;4995193;28;20050;-47
2023/11/19 10:50:06;;;;;;;13.20;3.08;;;;;;;12.14;79.82;98939.06;4996908;28;20045;-48
2023/11/19 10:52:33;;;;;;;12.23;1.58;;;;;;;12.17;79.21;98944.19;4991635;28;20054;-46
2023/11/19 10:55:02;;;;;;;17.45;2.30;;;;;;;12.19;79.01;98942.38;4994254;28;20149;-48
2023/11/19 10:57:32;;;;;;;14.70;1.90;;;;;;;12.25;79.82;98938.78;4992144;28;20074;-46
2023/11/19 11:00:02;;;;;;;5.53;1.15;;;;;;;12.29;79.09;98937.81;4996096;28;20046;-45
2023/11/19 11:02:34;;;;;;;6.43;1.75;;;;;;;12.32;78.69;98928.19;4993823;28;20148;-43
2023/11/19 11:05:02;;;;;;;5.75;1.70;;;;;;;12.38;78.90;98921.09;4994376;28;20038;-46
2023/11/19 11:07:31;;;;;;;6.57;1.10;;;;;;;12.33;78.09;98940.28;4990879;28;20503;-51
2023/11/19 11:10:09;;;;;;;5.13;0.93;;;;;;;12.33;78.02;98932.47;4994229;28;20041;-47
2023/11/19 11:12:37;;;;;;;8.60;1.33;;;;;;;12.33;77.92;98935.06;4999175;28;20076;-47
2023/11/19 11:15:06;;;;;;;7.70;0.88;;;;;;;12.33;78.29;98929.88;4994532;28;20500;-44
2023/11/19 11:17:34;;;;;;;9.88;1.15;;;;;;;12.36;78.83;98920.31;5001850;28;20074;-45
2023/11/19 11:20:02;;;;;;;6.55;2.67;;;;;;;12.41;78.51;98915.84;4989791;28;20434;-45
2023/11/19 11:22:42;;;;;;;9.77;1.75;;;;;;;12.50;78.85;98920.75;4996382;28;20061;-42
2023/11/19 11:25:49;;;;;;;8.57;1.67;;;;;;;12.55;78.58;98918.91;4990152;28;20354;-48
2023/11/19 11:31:15;;;;;;;7.07;2.08;;;;;;;12.63;78.53;98904.84;5026217;28;20387;-43
2023/11/19 11:34:06;;;;;;;4.43;2.08;;;;;;;12.68;77.62;98897.75;4983862;28;20054;-47
2023/11/19 11:36:46;;;;;;;8.55;2.00;;;;;;;12.66;78.26;98900.38;4987437;28;20234;-49